createdAt,value
2023-04-21T00:01:32.928Z,99616.59
2023-04-21T00:04:01.299Z,99614.69
2023-04-21T00:06:31.413Z,99608.66
2023-04-21T00:08:58.740Z,99607.84
2023-04-21T00:11:26.289Z,99609.41
2023-04-21T00:13:53.679Z,99609.50
2023-04-21T00:16:21.149Z,99606.19
2023-04-21T00:18:48.962Z,99606.19
2023-04-21T00:21:17.725Z,99601.78
2023-04-21T00:23:47.300Z,99612.66
2023-04-21T00:26:15.051Z,99602.03
2023-04-21T00:28:43.246Z,99606.41
2023-04-21T00:31:10.717Z,99598.22
2023-04-21T00:33:38.570Z,99591.72
2023-04-21T00:36:06.050Z,99598.03
2023-04-21T00:38:33.496Z,99600.75
2023-04-21T00:41:01.349Z,99592.56
2023-04-21T00:43:30.918Z,99598.03
2023-04-21T00:45:58.383Z,99602.41
2023-04-21T00:48:26.063Z,99601.56
2023-04-21T00:50:53.529Z,99598.03
2023-04-21T00:53:20.964Z,99600.75
2023-04-21T00:55:51.378Z,99593.41
2023-04-21T00:58:18.769Z,99590.69
2023-04-21T01:00:46.269Z,99587.34
2023-04-21T01:03:14.210Z,99590.91
2023-04-21T01:05:42.547Z,99584.63
2023-04-21T01:08:12.571Z,99591.72
2023-04-21T01:10:40.222Z,99590.69
2023-04-21T01:13:07.629Z,99581.69
2023-04-21T01:15:35.008Z,99589.00
2023-04-21T01:18:03.060Z,99587.13
2023-04-21T01:20:30.495Z,99587.13
2023-04-21T01:22:58.492Z,99590.06
2023-04-21T01:25:28.343Z,99591.97
2023-04-21T01:27:56.646Z,99593.03
2023-04-21T01:30:24.097Z,99587.59
2023-04-21T01:32:52.221Z,99592.19
2023-04-21T01:35:19.713Z,99586.75
2023-04-21T01:37:47.136Z,99587.59
2023-04-21T01:40:14.870Z,99573.97
2023-04-21T01:42:43.284Z,99583.22
2023-04-21T01:45:11.159Z,99577.75
2023-04-21T01:47:38.892Z,99578.59
2023-04-21T01:50:07.978Z,99576.69
2023-04-21T01:52:35.553Z,99574.22
2023-04-21T01:55:03.217Z,99578.34
2023-04-21T01:57:30.717Z,99583.78
2023-04-21T01:59:58.239Z,99581.06
2023-04-21T02:02:27.800Z,99583.56
2023-04-21T02:04:55.682Z,99580.00
2023-04-21T02:07:23.099Z,99588.16
2023-04-21T02:09:50.492Z,99587.34
2023-04-21T02:12:21.191Z,99582.72
2023-04-21T02:14:49.453Z,99583.56
2023-04-21T02:17:17.759Z,99586.28
2023-04-21T02:19:45.538Z,99586.28
2023-04-21T02:22:13.012Z,99585.44
2023-04-21T02:24:40.873Z,99587.13
2023-04-21T02:27:08.549Z,99591.72
2023-04-21T02:29:36.024Z,99595.31
2023-04-21T02:32:14.265Z,99598.03
2023-04-21T02:34:51.207Z,99586.28
2023-04-21T02:37:18.688Z,99590.69
2023-04-21T02:39:46.140Z,99582.53
2023-04-21T02:42:13.862Z,99589.84
2023-04-21T02:44:42.803Z,99592.56
2023-04-21T02:47:10.563Z,99587.13
2023-04-21T02:49:42.187Z,99589.00
2023-04-21T02:52:10.001Z,99590.06
2023-04-21T02:54:37.740Z,99590.91
2023-04-21T02:57:05.186Z,99591.97
2023-04-21T02:59:33.834Z,99587.59
2023-04-21T03:02:01.743Z,99591.38
2023-04-21T03:04:30.234Z,99594.09
2023-04-21T03:06:58.330Z,99593.25
2023-04-21T03:09:26.003Z,99585.94
2023-04-21T03:11:53.724Z,99596.00
2023-04-21T03:14:21.162Z,99593.25
2023-04-21T03:16:48.911Z,99596.00
2023-04-21T03:19:16.597Z,99597.03
2023-04-21T03:21:45.103Z,99589.69
2023-04-21T03:24:12.809Z,99585.09
2023-04-21T03:26:43.298Z,99590.53
2023-04-21T03:29:10.818Z,99586.97
2023-04-21T03:31:38.678Z,99585.31
2023-04-21T03:34:06.152Z,99593.72
2023-04-21T03:36:33.795Z,99588.28
2023-04-21T03:39:12.802Z,99591.81
2023-04-21T03:41:47.143Z,99590.16
2023-04-21T03:44:14.869Z,99595.59
2023-04-21T03:46:42.282Z,99596.69
2023-04-21T03:49:10.169Z,99601.25
2023-04-21T03:51:37.878Z,99602.13
2023-04-21T03:54:05.336Z,99608.38
2023-04-21T03:56:32.756Z,99601.06
2023-04-21T03:59:00.860Z,99610.03
2023-04-21T04:01:28.717Z,99601.88
2023-04-21T04:03:56.489Z,99598.34
2023-04-21T04:06:24.217Z,99612.75
2023-04-21T04:08:51.644Z,99611.94
2023-04-21T04:11:19.369Z,99614.88
2023-04-21T04:13:46.798Z,99613.00
2023-04-21T04:16:14.371Z,99622.19
2023-04-21T04:18:42.250Z,99626.00
2023-04-21T04:21:09.635Z,99624.34
2023-04-21T04:23:37.654Z,99626.22
2023-04-21T04:26:05.737Z,99630.84
2023-04-21T04:28:33.768Z,99631.66
2023-04-21T04:31:01.339Z,99627.28
2023-04-21T04:33:29.281Z,99641.72
2023-04-21T04:35:58.325Z,99633.56
2023-04-21T04:38:25.760Z,99640.66
2023-04-21T04:40:54.833Z,99645.28
2023-04-21T04:43:22.422Z,99641.72
2023-04-21T04:45:50.024Z,99642.56
2023-04-21T04:48:17.877Z,99637.13
2023-04-21T04:50:45.317Z,99639.84
2023-04-21T04:53:12.752Z,99643.37
2023-04-21T04:55:40.455Z,99634.41
2023-04-21T04:58:07.907Z,99636.28
2023-04-21T05:00:37.061Z,99637.13
2023-04-21T05:03:05.203Z,99633.56
2023-04-21T05:05:32.821Z,99636.03
2023-04-21T05:08:00.241Z,99639.84
2023-04-21T05:10:27.997Z,99641.72
2023-04-21T05:12:55.375Z,99641.50
2023-04-21T05:15:23.106Z,99633.56
2023-04-21T05:17:50.834Z,99640.91
2023-04-21T05:20:18.288Z,99630.84
2023-04-21T05:22:45.710Z,99636.28
2023-04-21T05:25:15.763Z,99640.66
2023-04-21T05:27:43.458Z,99637.94
2023-04-21T05:30:11.419Z,99639.84
2023-04-21T05:32:39.212Z,99645.28
2023-04-21T05:35:07.115Z,99648.00
2023-04-21T05:37:34.548Z,99642.56
2023-04-21T05:40:02.302Z,99653.44
2023-04-21T05:42:30.422Z,99647.16
2023-04-21T05:44:58.266Z,99648.81
2023-04-21T05:47:26.007Z,99645.28
2023-04-21T05:49:53.961Z,99648.81
2023-04-21T05:52:21.867Z,99649.87
2023-04-21T05:54:49.610Z,99648.00
2023-04-21T05:57:17.822Z,99656.16
2023-04-21T05:59:45.349Z,99656.16
2023-04-21T06:02:13.160Z,99658.87
2023-04-21T06:04:41.059Z,99662.44
2023-04-21T06:07:09.714Z,99658.06
2023-04-21T06:09:37.306Z,99658.06
2023-04-21T06:12:05.132Z,99659.94
2023-04-21T06:14:32.582Z,99658.06
2023-04-21T06:17:00.059Z,99652.63
2023-04-21T06:19:27.764Z,99658.06
2023-04-21T06:21:56.944Z,99658.06
2023-04-21T06:24:27.100Z,99656.38
2023-04-21T06:26:54.833Z,99657.22
2023-04-21T06:29:22.397Z,99656.38
2023-04-21T06:31:49.912Z,99662.66
2023-04-21T06:34:18.083Z,99657.22
2023-04-21T06:36:45.840Z,99650.94
2023-04-21T06:39:13.306Z,99659.94
2023-04-21T06:41:41.026Z,99652.81
2023-04-21T06:44:08.502Z,99656.38
2023-04-21T06:46:36.071Z,99658.25
2023-04-21T06:49:04.119Z,99657.44
2023-04-21T06:51:32.192Z,99652.81
2023-04-21T06:53:59.677Z,99655.53
2023-04-21T06:56:27.709Z,99651.78
2023-04-21T06:58:55.514Z,99648.44
2023-04-21T07:01:24.493Z,99649.28
2023-04-21T07:03:52.311Z,99637.56
2023-04-21T07:06:19.802Z,99643.81
2023-04-21T07:08:47.208Z,99643.81
2023-04-21T07:11:14.862Z,99643.81
2023-04-21T07:13:42.277Z,99643.81
2023-04-21T07:16:09.876Z,99647.62
2023-04-21T07:18:39.927Z,99644.91
2023-04-21T07:21:07.597Z,99644.06
2023-04-21T07:23:34.991Z,99643.81
2023-04-21T07:26:02.685Z,99651.16
2023-04-21T07:28:30.148Z,99642.16
2023-04-21T07:30:57.666Z,99643.81
2023-04-21T07:33:25.364Z,99649.28
2023-04-21T07:35:52.791Z,99646.53
2023-04-21T07:38:20.288Z,99643.81
2023-04-21T07:40:47.960Z,99649.06
2023-04-21T07:43:15.485Z,99640.03
2023-04-21T07:45:42.939Z,99646.34
2023-04-21T07:48:10.963Z,99643.37
2023-04-21T07:50:38.399Z,99643.37
2023-04-21T07:53:05.886Z,99645.88
2023-04-21T07:55:34.309Z,99654.84
2023-04-21T07:58:01.702Z,99645.66
2023-04-21T08:00:29.143Z,99652.53
2023-04-21T08:02:56.902Z,99649.78
2023-04-21T08:05:26.506Z,99655.88
2023-04-21T08:07:55.745Z,99648.53
2023-04-21T08:10:23.796Z,99643.09
2023-04-21T08:12:51.268Z,99652.91
2023-04-21T08:15:18.851Z,99651.84
2023-04-21T08:17:46.596Z,99652.47
2023-04-21T08:20:14.276Z,99648.88
2023-04-21T08:22:41.739Z,99654.12
2023-04-21T08:25:09.595Z,99650.31
2023-04-21T08:27:40.127Z,99660.38
2023-04-21T08:30:08.178Z,99656.84
2023-04-21T08:32:35.987Z,99655.19
2023-04-21T08:35:03.511Z,99648.03
2023-04-21T08:37:31.076Z,99648.03
2023-04-21T08:39:58.876Z,99640.94
2023-04-21T08:42:26.288Z,99645.31
2023-04-21T08:44:53.668Z,99645.56
2023-04-21T08:47:21.332Z,99639.28
2023-04-21T08:49:48.731Z,99636.34
2023-04-21T08:52:16.134Z,99636.34
2023-04-21T08:54:43.787Z,99637.63
2023-04-21T08:57:15.750Z,99644.13
2023-04-21T08:59:44.605Z,99636.19
2023-04-21T09:02:21.397Z,99643.75
2023-04-21T09:04:51.624Z,99636.63
2023-04-21T09:07:35.901Z,99629.34
2023-04-21T09:10:04.407Z,99624.72
2023-04-21T09:12:32.236Z,99637.13
2023-04-21T09:15:00.908Z,99639.84
2023-04-21T09:17:32.733Z,99634.59
2023-04-21T09:20:16.792Z,99632.75
2023-04-21T09:22:44.556Z,99629.16
2023-04-21T09:25:16.141Z,99632.34
2023-04-21T09:27:44.072Z,99621.69
2023-04-21T09:30:11.857Z,99628.81
2023-04-21T09:32:40.010Z,99630.06
2023-04-21T09:35:11.335Z,99620.03
2023-04-21T09:37:39.527Z,99620.25
2023-04-21T09:40:07.404Z,99618.38
2023-04-21T09:42:39.258Z,99615.06
2023-04-21T09:45:32.386Z,99605.00
2023-04-21T09:47:58.425Z,99607.94
2023-04-21T09:50:54.787Z,99605.72
2023-04-21T09:53:16.783Z,99610.44
2023-04-21T09:55:44.917Z,99601.66
2023-04-21T09:58:12.352Z,99607.34
2023-04-21T10:00:40.995Z,99605.69
2023-04-21T10:03:11.408Z,99598.56
2023-04-21T10:05:42.050Z,99603.16
2023-04-21T10:08:11.794Z,99604.00
2023-04-21T10:10:39.462Z,99593.31
2023-04-21T10:13:07.193Z,99593.97
2023-04-21T10:15:38.133Z,99587.88
2023-04-21T10:18:18.854Z,99596.03
2023-04-21T10:21:12.029Z,99593.12
2023-04-21T10:23:43.801Z,99595.00
2023-04-21T10:26:22.753Z,99589.78
2023-04-21T10:29:01.047Z,99587.66
2023-04-21T10:31:53.644Z,99588.69
2023-04-21T10:34:38.075Z,99586.84
2023-04-21T10:37:05.619Z,99582.22
2023-04-21T10:39:48.271Z,99572.63
2023-04-21T10:42:15.818Z,99582.03
2023-04-21T10:44:43.818Z,99572.22
2023-04-21T10:47:11.528Z,99574.06
2023-04-21T10:49:39.923Z,99559.19
2023-04-21T10:52:08.240Z,99554.00
2023-04-21T10:54:47.746Z,99560.84
2023-04-21T10:57:19.507Z,99556.84
2023-04-21T10:59:47.687Z,99558.75
2023-04-21T11:02:16.606Z,99553.31
2023-04-21T11:04:50.312Z,99555.78
2023-04-21T11:07:24.031Z,99552.81
2023-04-21T11:09:59.394Z,99548.22
2023-04-21T11:12:29.207Z,99544.44
2023-04-21T11:14:56.745Z,99549.06
2023-04-21T11:17:24.579Z,99555.34
2023-04-21T11:19:54.382Z,99549.91
2023-04-21T11:22:27.890Z,99549.06
2023-04-21T11:24:56.368Z,99547.19
2023-04-21T11:27:23.780Z,99545.50
2023-04-21T11:29:51.390Z,99551.16
2023-04-21T11:32:19.169Z,99548.44
2023-04-21T11:34:46.711Z,99544.91
2023-04-21T11:37:26.979Z,99535.91
2023-04-21T11:40:01.113Z,99534.00
2023-04-21T11:42:28.623Z,99538.41
2023-04-21T11:44:56.840Z,99542.19
2023-04-21T11:47:25.830Z,99529.63
2023-04-21T11:49:54.750Z,99535.66
2023-04-21T11:52:33.169Z,99535.47
2023-04-21T11:55:02.074Z,99534.59
2023-04-21T11:57:30.386Z,99529.16
2023-04-21T12:00:11.036Z,99529.16
2023-04-21T12:02:38.949Z,99532.50
2023-04-21T12:05:08.173Z,99531.66
2023-04-21T12:07:37.039Z,99528.13
2023-04-21T12:10:20.957Z,99532.50
2023-04-21T12:12:48.493Z,99534.16
2023-04-21T12:15:28.755Z,99521.63
2023-04-21T12:17:56.460Z,99525.41
2023-04-21T12:20:24.823Z,99520.78
2023-04-21T12:22:53.375Z,99517.00
2023-04-21T12:25:20.821Z,99509.66
2023-04-21T12:27:52.101Z,99516.19
2023-04-21T12:30:20.308Z,99510.72
2023-04-21T12:32:48.504Z,99502.56
2023-04-21T12:35:16.247Z,99504.22
2023-04-21T12:37:44.749Z,99503.16
2023-04-21T12:40:12.437Z,99504.22
2023-04-21T12:42:39.948Z,99512.38
2023-04-21T12:45:07.792Z,99512.16
2023-04-21T12:47:36.906Z,99506.13
2023-04-21T12:50:04.975Z,99505.06
2023-04-21T12:52:32.460Z,99497.94
2023-04-21T12:55:00.290Z,99498.78
2023-04-21T12:57:27.776Z,99505.87
2023-04-21T12:59:55.997Z,99497.94
2023-04-21T13:02:23.782Z,99506.13
2023-04-21T13:04:51.316Z,99502.31
2023-04-21T13:07:21.384Z,99496.88
2023-04-21T13:09:49.164Z,99498.53
2023-04-21T13:12:17.310Z,99499.41
2023-04-21T13:14:44.809Z,99490.37
2023-04-21T13:17:12.652Z,99491.44
2023-04-21T13:19:40.223Z,99494.16
2023-04-21T13:22:07.733Z,99492.28
2023-04-21T13:24:35.482Z,99493.34
2023-04-21T13:27:02.940Z,99487.91
2023-04-21T13:29:33.974Z,99483.53
2023-04-21T13:32:02.613Z,99486.25
2023-04-21T13:34:30.924Z,99487.31
2023-04-21T13:36:58.510Z,99484.59
2023-04-21T13:39:26.511Z,99481.03
2023-04-21T13:41:54.411Z,99484.81
2023-04-21T13:44:21.954Z,99487.53
2023-04-21T13:46:52.245Z,99487.53
2023-04-21T13:49:20.888Z,99480.44
2023-04-21T13:51:48.321Z,99473.09
2023-04-21T13:54:16.111Z,99474.16
2023-04-21T13:56:43.535Z,99471.44
2023-04-21T13:59:11.261Z,99466.81
2023-04-21T14:01:39.001Z,99471.44
2023-04-21T14:04:07.070Z,99470.59
2023-04-21T14:06:34.592Z,99473.56
2023-04-21T14:09:02.024Z,99459.13
2023-04-21T14:11:29.841Z,99459.97
2023-04-21T14:14:08.860Z,99452.00
2023-04-21T14:16:37.544Z,99459.13
2023-04-21T14:19:04.938Z,99459.03
2023-04-21T14:21:32.827Z,99451.44
2023-04-21T14:24:00.876Z,99456.25
2023-04-21T14:26:28.308Z,99449.38
2023-04-21T14:28:56.416Z,99447.72
2023-04-21T14:31:24.158Z,99446.03
2023-04-21T14:33:51.636Z,99445.22
2023-04-21T14:36:19.077Z,99445.00
2023-04-21T14:38:46.781Z,99440.59
2023-04-21T14:41:14.535Z,99441.22
2023-04-21T14:43:41.936Z,99433.28
2023-04-21T14:46:09.865Z,99432.22
2023-04-21T14:48:37.371Z,99442.03
2023-04-21T14:51:06.098Z,99428.44
2023-04-21T14:53:33.861Z,99436.59
2023-04-21T14:56:01.300Z,99435.53
2023-04-21T14:58:28.738Z,99433.62
2023-04-21T15:00:56.610Z,99425.47
2023-04-21T15:03:24.295Z,99423.63
2023-04-21T15:05:52.233Z,99424.22
2023-04-21T15:08:20.802Z,99421.50
2023-04-21T15:10:48.396Z,99421.50
2023-04-21T15:13:16.479Z,99427.78
2023-04-21T15:15:44.372Z,99425.06
2023-04-21T15:18:11.959Z,99417.72
2023-04-21T15:20:45.248Z,99417.72
2023-04-21T15:23:14.004Z,99409.56
2023-04-21T15:25:41.766Z,99413.94
2023-04-21T15:28:09.801Z,99413.72
2023-04-21T15:30:37.672Z,99412.84
2023-04-21T15:33:05.333Z,99418.09
2023-04-21T15:35:32.788Z,99411.59
2023-04-21T15:38:00.620Z,99412.41
2023-04-21T15:40:28.069Z,99408.63
2023-04-21T15:42:55.503Z,99409.44
2023-04-21T15:45:23.244Z,99404.84
2023-04-21T15:47:51.019Z,99407.56
2023-04-21T15:50:18.508Z,99411.12
2023-04-21T15:52:46.235Z,99399.16
2023-04-21T15:55:13.843Z,99405.44
2023-04-21T15:57:41.331Z,99396.22
2023-04-21T16:00:10.575Z,99397.28
2023-04-21T16:02:38.865Z,99392.66
2023-04-21T16:05:06.920Z,99395.12
2023-04-21T16:07:34.709Z,99390.75
2023-04-21T16:10:02.624Z,99388.88
2023-04-21T16:12:30.225Z,99388.88
2023-04-21T16:15:04.023Z,99382.59
2023-04-21T16:17:44.166Z,99381.53
2023-04-21T16:20:12.330Z,99390.56
2023-04-21T16:22:39.771Z,99385.31
2023-04-21T16:25:08.833Z,99386.16
2023-04-21T16:27:36.442Z,99389.69
2023-04-21T16:30:06.056Z,99385.94
2023-04-21T16:32:35.951Z,99388.66
2023-04-21T16:35:08.205Z,99383.22
2023-04-21T16:37:38.188Z,99391.37
2023-04-21T16:40:07.430Z,99386.75
2023-04-21T16:42:35.213Z,99394.09
2023-04-21T16:45:04.510Z,99386.75
2023-04-21T16:47:37.917Z,99385.94
2023-04-21T16:50:10.843Z,99390.56
2023-04-21T16:52:38.320Z,99384.88
2023-04-21T16:55:08.159Z,99378.59
2023-04-21T16:57:35.842Z,99385.69
2023-04-21T17:00:07.033Z,99379.91
2023-04-21T17:02:34.795Z,99378.09
2023-04-21T17:05:02.660Z,99384.41
2023-04-21T17:07:31.950Z,99385.44
2023-04-21T17:09:59.510Z,99383.34
2023-04-21T17:12:27.170Z,99385.81
2023-04-21T17:14:54.577Z,99384.53
2023-04-21T17:17:22.225Z,99383.47
2023-04-21T17:19:50.076Z,99384.03
2023-04-21T17:22:17.579Z,99380.28
2023-04-21T17:24:53.211Z,99378.16
2023-04-21T17:27:21.655Z,99383.13
2023-04-21T17:29:49.235Z,99384.78
2023-04-21T17:32:16.974Z,99382.88
2023-04-21T17:34:44.812Z,99384.28
2023-04-21T17:37:12.295Z,99385.13
2023-04-21T17:39:39.793Z,99385.72
2023-04-21T17:42:07.543Z,99391.53
2023-04-21T17:44:35.194Z,99388.19
2023-04-21T17:47:04.040Z,99394.00
2023-04-21T17:49:31.770Z,99389.38
2023-04-21T17:51:59.260Z,99395.66
2023-04-21T17:54:27.000Z,99392.72
2023-04-21T17:56:54.724Z,99406.09
2023-04-21T17:59:22.170Z,99405.25
2023-04-21T18:01:49.571Z,99407.75
2023-04-21T18:04:17.518Z,99402.09
2023-04-21T18:06:45.608Z,99407.75
2023-04-21T18:09:13.223Z,99403.62
2023-04-21T18:11:41.937Z,99406.34
2023-04-21T18:14:10.211Z,99406.34
2023-04-21T18:16:40.010Z,99409.19
2023-04-21T18:19:09.435Z,99420.91
2023-04-21T18:21:37.002Z,99415.69
2023-04-21T18:24:05.056Z,99420.66
2023-04-21T18:26:32.834Z,99413.78
2023-04-21T18:29:00.758Z,99412.13
2023-04-21T18:31:29.635Z,99419.47
2023-04-21T18:33:57.702Z,99415.09
2023-04-21T18:36:25.777Z,99420.06
2023-04-21T18:38:53.203Z,99423.84
2023-04-21T18:41:23.530Z,99420.06
2023-04-21T18:43:50.972Z,99420.91
2023-04-21T18:46:18.938Z,99424.19
2023-04-21T18:48:47.245Z,99422.53
2023-04-21T18:51:15.092Z,99427.41
2023-04-21T18:53:43.374Z,99425.50
2023-04-21T18:56:11.247Z,99432.03
2023-04-21T18:58:38.869Z,99427.41
2023-04-21T19:01:08.094Z,99422.78
2023-04-21T19:03:37.888Z,99425.72
2023-04-21T19:06:06.737Z,99423.63
2023-04-21T19:08:41.929Z,99424.69
2023-04-21T19:11:15.876Z,99423.84
2023-04-21T19:13:43.542Z,99418.41
2023-04-21T19:16:11.724Z,99428.22
2023-04-21T19:18:39.841Z,99426.34
2023-04-21T19:21:12.831Z,99425.03
2023-04-21T19:23:41.755Z,99429.44
2023-04-21T19:26:13.615Z,99422.09
2023-04-21T19:28:41.831Z,99431.91
2023-04-21T19:31:09.372Z,99419.38
2023-04-21T19:33:37.242Z,99431.31
2023-04-21T19:36:07.095Z,99433.81
2023-04-21T19:38:35.874Z,99431.31
2023-04-21T19:41:03.627Z,99426.91
2023-04-21T19:43:31.818Z,99433.19
2023-04-21T19:45:59.986Z,99418.75
2023-04-21T19:48:28.432Z,99430.47
2023-04-21T19:50:56.306Z,99425.03
2023-04-21T19:53:41.269Z,99424.19
2023-04-21T19:59:36.449Z,99432.16
2023-04-21T20:02:09.607Z,99430.97
2023-04-21T20:10:44.655Z,99434.75
2023-04-21T20:13:13.854Z,99443.13
2023-04-21T20:15:42.514Z,99439.84
2023-04-21T20:18:10.962Z,99432.50
2023-04-21T20:20:38.741Z,99446.09
2023-04-21T20:23:06.395Z,99440.66
2023-04-21T20:25:34.319Z,99445.28
2023-04-21T20:28:02.670Z,99437.09
2023-04-21T20:30:30.248Z,99442.56
2023-04-21T20:32:57.754Z,99436.28
2023-04-21T20:35:26.649Z,99436.28
2023-04-21T20:37:55.709Z,99432.72
2023-04-21T20:40:23.195Z,99440.03
2023-04-21T20:42:52.086Z,99446.56
2023-04-21T20:45:19.779Z,99440.53
2023-04-21T20:47:47.476Z,99441.34
2023-04-21T20:50:15.255Z,99441.34
2023-04-21T20:52:43.019Z,99446.19
2023-04-21T20:55:11.164Z,99449.97
2023-04-21T20:57:39.614Z,99449.16
2023-04-21T21:00:09.626Z,99446.44
2023-04-21T21:02:37.799Z,99444.53
2023-04-21T21:05:06.186Z,99435.78
2023-04-21T21:07:33.680Z,99443.97
2023-04-21T21:10:01.078Z,99444.16
2023-04-21T21:12:28.829Z,99448.56
2023-04-21T21:14:56.340Z,99444.16
2023-04-21T21:17:23.731Z,99439.78
2023-04-21T21:19:51.408Z,99446.31
2023-04-21T21:22:18.794Z,99447.38
2023-04-21T21:24:46.749Z,99448.22
2023-04-21T21:27:14.421Z,99449.28
2023-04-21T21:29:41.837Z,99454.72
2023-04-21T21:32:09.244Z,99458.47
2023-04-21T21:34:36.892Z,99455.75
2023-04-21T21:37:04.447Z,99460.37
2023-04-21T21:39:31.870Z,99460.37
2023-04-21T21:41:59.535Z,99456.81
2023-04-21T21:44:26.984Z,99458.72
2023-04-21T21:46:54.370Z,99454.34
2023-04-21T21:49:22.609Z,99457.91
2023-04-21T21:51:50.515Z,99464.16
2023-04-21T21:54:17.987Z,99468.53
2023-04-21T21:56:45.644Z,99468.53
2023-04-21T21:59:13.056Z,99467.50
2023-04-21T22:01:41.611Z,99460.37
2023-04-21T22:04:09.492Z,99473.97
2023-04-21T22:06:37.195Z,99475.66
2023-04-21T22:09:05.197Z,99465.81
2023-04-21T22:11:32.882Z,99460.37
2023-04-21T22:14:07.942Z,99472.09
2023-04-21T22:16:46.619Z,99471.25
2023-04-21T22:19:14.726Z,99473.16
2023-04-21T22:21:42.141Z,99476.72
2023-04-21T22:24:09.778Z,99473.16
2023-04-21T22:26:37.277Z,99466.87
2023-04-21T22:29:04.827Z,99475.06
2023-04-21T22:31:32.503Z,99469.63
2023-04-21T22:33:59.903Z,99469.84
2023-04-21T22:36:27.396Z,99469.84
2023-04-21T22:38:55.059Z,99469.03
2023-04-21T22:41:22.768Z,99470.69
2023-04-21T22:43:50.182Z,99469.84
2023-04-21T22:46:17.947Z,99469.03
2023-04-21T22:48:46.635Z,99470.94
2023-04-21T22:51:21.077Z,99474.69
2023-04-21T22:53:48.886Z,99471.38
2023-04-21T22:56:16.301Z,99473.28
2023-04-21T22:58:43.785Z,99470.56
2023-04-21T23:01:11.636Z,99477.06
2023-04-21T23:03:39.131Z,99472.19
2023-04-21T23:06:06.821Z,99474.09
2023-04-21T23:08:34.554Z,99474.34
2023-04-21T23:11:04.113Z,99478.72
2023-04-21T23:13:32.844Z,99478.97
2023-04-21T23:16:01.176Z,99477.06
2023-04-21T23:18:28.732Z,99481.44
2023-04-21T23:20:56.174Z,99480.81
2023-04-21T23:23:23.829Z,99481.88
2023-04-21T23:25:51.635Z,99476.44
2023-04-21T23:28:20.421Z,99479.16
2023-04-21T23:30:48.226Z,99471.25
2023-04-21T23:33:15.730Z,99473.72
2023-04-21T23:35:43.222Z,99468.28
2023-04-21T23:38:10.965Z,99473.72
2023-04-21T23:40:38.398Z,99469.13
2023-04-21T23:43:05.862Z,99474.34
2023-04-21T23:45:33.596Z,99474.56
2023-04-21T23:48:01.057Z,99469.13
2023-04-21T23:50:28.505Z,99468.28
2023-04-21T23:52:56.501Z,99469.13
2023-04-21T23:55:23.901Z,99465.56
2023-04-21T23:57:51.310Z,99466.63
